sensor_id;sensor_type;location;lat;lon;timestamp;pressure;altitude;pressure_sealevel;temperature;humidity
46756;BME280;32506;52.826;-1.192;2023-03-20T00:00:45;101010.16;;;9.23;58.29
46756;BME280;32506;52.826;-1.192;2023-03-20T00:03:11;101003.97;;;9.22;58.01
46756;BME280;32506;52.826;-1.192;2023-03-20T00:05:37;101005.03;;;9.21;58.26
46756;BME280;32506;52.826;-1.192;2023-03-20T00:08:03;100998.84;;;9.21;58.08
46756;BME280;32506;52.826;-1.192;2023-03-20T00:10:38;100998.22;;;9.19;58.19
46756;BME280;32506;52.826;-1.192;2023-03-20T00:13:05;100985.91;;;9.18;57.95
46756;BME280;32506;52.826;-1.192;2023-03-20T00:15:36;100992.91;;;9.19;58.27
46756;BME280;32506;52.826;-1.192;2023-03-20T00:18:03;100985.09;;;9.17;58.42
46756;BME280;32506;52.826;-1.192;2023-03-20T00:20:36;100992.25;;;9.17;58.13
46756;BME280;32506;52.826;-1.192;2023-03-20T00:23:01;100992.44;;;9.15;58.51
46756;BME280;32506;52.826;-1.192;2023-03-20T00:25:28;100986.31;;;9.15;58.31
46756;BME280;32506;52.826;-1.192;2023-03-20T00:27:54;100992.66;;;9.14;58.00
46756;BME280;32506;52.826;-1.192;2023-03-20T00:30:30;100983.00;;;9.13;58.33
46756;BME280;32506;52.826;-1.192;2023-03-20T00:32:57;100976.00;;;9.12;58.26
46756;BME280;32506;52.826;-1.192;2023-03-20T00:35:29;100983.19;;;9.11;58.20
46756;BME280;32506;52.826;-1.192;2023-03-20T00:37:55;100976.84;;;9.12;58.20
46756;BME280;32506;52.826;-1.192;2023-03-20T00:40:24;100979.06;;;9.09;58.47
46756;BME280;32506;52.826;-1.192;2023-03-20T00:42:57;100983.59;;;9.08;58.33
46756;BME280;32506;52.826;-1.192;2023-03-20T00:45:23;100976.59;;;9.07;58.26
46756;BME280;32506;52.826;-1.192;2023-03-20T00:47:49;100972.28;;;9.06;58.19
46756;BME280;32506;52.826;-1.192;2023-03-20T00:50:26;100976.78;;;9.05;58.38
46756;BME280;32506;52.826;-1.192;2023-03-20T00:52:54;100977.00;;;9.04;58.34
46756;BME280;32506;52.826;-1.192;2023-03-20T00:55:23;100979.66;;;9.04;58.45
46756;BME280;32506;52.826;-1.192;2023-03-20T00:57:51;100970.81;;;9.03;58.35
46756;BME280;32506;52.826;-1.192;2023-03-20T01:03:09;100965.69;;;9.02;58.44
46756;BME280;32506;52.826;-1.192;2023-03-20T01:05:36;100973.88;;;9.00;58.28
46756;BME280;32506;52.826;-1.192;2023-03-20T01:08:01;100969.56;;;8.99;58.52
46756;BME280;32506;52.826;-1.192;2023-03-20T01:10:29;100970.56;;;8.98;58.31
46756;BME280;32506;52.826;-1.192;2023-03-20T01:12:59;100968.75;;;8.99;58.59
46756;BME280;32506;52.826;-1.192;2023-03-20T01:15:32;100949.22;;;8.98;58.44
46756;BME280;32506;52.826;-1.192;2023-03-20T01:17:57;100944.09;;;8.97;58.35
46756;BME280;32506;52.826;-1.192;2023-03-20T01:20:28;100939.81;;;8.96;58.55
46756;BME280;32506;52.826;-1.192;2023-03-20T01:22:54;100941.63;;;8.95;58.57
46756;BME280;32506;52.826;-1.192;2023-03-20T01:25:19;100935.50;;;8.95;58.65
46756;BME280;32506;52.826;-1.192;2023-03-20T01:27:50;100935.69;;;8.93;58.42
46756;BME280;32506;52.826;-1.192;2023-03-20T01:30:19;100935.69;;;8.93;58.30
46756;BME280;32506;52.826;-1.192;2023-03-20T01:32:46;100926.22;;;8.90;58.66
46756;BME280;32506;52.826;-1.192;2023-03-20T01:35:14;100920.91;;;8.90;58.49
46756;BME280;32506;52.826;-1.192;2023-03-20T01:37:40;100923.75;;;8.89;58.35
46756;BME280;32506;52.826;-1.192;2023-03-20T01:40:36;100929.09;;;8.89;58.59
46756;BME280;32506;52.826;-1.192;2023-03-20T01:43:13;100924.78;;;8.88;58.43
46756;BME280;32506;52.826;-1.192;2023-03-20T01:46:30;100928.66;;;8.85;58.59
46756;BME280;32506;52.826;-1.192;2023-03-20T01:48:55;100930.47;;;8.85;58.83
46756;BME280;32506;52.826;-1.192;2023-03-20T01:51:30;100919.19;;;8.83;58.64
46756;BME280;32506;52.826;-1.192;2023-03-20T01:54:31;100915.72;;;8.82;58.73
46756;BME280;32506;52.826;-1.192;2023-03-20T01:59:31;100908.94;;;8.80;58.99
46756;BME280;32506;52.826;-1.192;2023-03-20T02:01:59;100909.09;;;8.78;58.86
46756;BME280;32506;52.826;-1.192;2023-03-20T02:04:33;100894.34;;;8.76;59.02
46756;BME280;32506;52.826;-1.192;2023-03-20T02:07:00;100900.69;;;8.75;58.89
46756;BME280;32506;52.826;-1.192;2023-03-20T02:09:26;100900.88;;;8.73;58.77
46756;BME280;32506;52.826;-1.192;2023-03-20T02:11:53;100896.56;;;8.72;58.85
46756;BME280;32506;52.826;-1.192;2023-03-20T02:14:19;100885.25;;;8.70;58.92
46756;BME280;32506;52.826;-1.192;2023-03-20T02:16:46;100887.31;;;8.68;58.80
46756;BME280;32506;52.826;-1.192;2023-03-20T02:19:21;100879.31;;;8.68;59.08
46756;BME280;32506;52.826;-1.192;2023-03-20T02:48:43;100861.31;;;8.48;59.63
46756;BME280;32506;52.826;-1.192;2023-03-20T03:01:50;100862.22;;;8.40;59.85
46756;BME280;32506;52.826;-1.192;2023-03-20T03:04:20;100864.88;;;8.40;60.19
46756;BME280;32506;52.826;-1.192;2023-03-20T03:06:49;100857.09;;;8.39;60.23
46756;BME280;32506;52.826;-1.192;2023-03-20T03:09:38;100860.78;;;8.38;60.17
46756;BME280;32506;52.826;-1.192;2023-03-20T03:12:13;100856.66;;;8.35;60.05
46756;BME280;32506;52.826;-1.192;2023-03-20T03:14:46;100852.34;;;8.34;60.08
46756;BME280;32506;52.826;-1.192;2023-03-20T03:17:13;100844.56;;;8.33;60.20
46756;BME280;32506;52.826;-1.192;2023-03-20T03:19:44;100840.25;;;8.32;60.62
46756;BME280;32506;52.826;-1.192;2023-03-20T03:22:12;100835.94;;;8.31;60.49
46756;BME280;32506;52.826;-1.192;2023-03-20T03:24:43;100836.94;;;8.30;60.65
46756;BME280;32506;52.826;-1.192;2023-03-20T03:27:20;100837.97;;;8.29;60.71
46756;BME280;32506;52.826;-1.192;2023-03-20T03:30:00;100829.34;;;8.27;60.93
46756;BME280;32506;52.826;-1.192;2023-03-20T03:32:33;100833.84;;;8.26;60.71
46756;BME280;32506;52.826;-1.192;2023-03-20T03:35:00;100835.88;;;8.24;60.83
46756;BME280;32506;52.826;-1.192;2023-03-20T03:40:26;100820.09;;;8.22;61.43
46756;BME280;32506;52.826;-1.192;2023-03-20T03:43:21;100814.97;;;8.21;61.37
46756;BME280;32506;52.826;-1.192;2023-03-20T03:45:48;100812.50;;;8.19;61.87
46756;BME280;32506;52.826;-1.192;2023-03-20T03:48:22;100816.16;;;8.18;61.77
46756;BME280;32506;52.826;-1.192;2023-03-20T03:50:53;100813.69;;;8.17;61.61
46756;BME280;32506;52.826;-1.192;2023-03-20T03:53:25;100812.84;;;8.16;62.20
46756;BME280;32506;52.826;-1.192;2023-03-20T03:55:59;100805.06;;;8.15;62.12
46756;BME280;32506;52.826;-1.192;2023-03-20T03:58:40;100804.25;;;8.14;62.15
46756;BME280;32506;52.826;-1.192;2023-03-20T04:01:08;100803.44;;;8.14;62.22
46756;BME280;32506;52.826;-1.192;2023-03-20T04:03:39;100798.28;;;8.12;62.58
46756;BME280;32506;52.826;-1.192;2023-03-20T04:06:07;100800.94;;;8.12;62.95
46756;BME280;32506;52.826;-1.192;2023-03-20T04:08:34;100797.47;;;8.12;62.96
46756;BME280;32506;52.826;-1.192;2023-03-20T04:10:59;100795.81;;;8.11;62.79
46756;BME280;32506;52.826;-1.192;2023-03-20T04:13:25;100788.81;;;8.10;62.96
46756;BME280;32506;52.826;-1.192;2023-03-20T04:15:50;100797.66;;;8.10;63.11
46756;BME280;32506;52.826;-1.192;2023-03-20T04:18:17;100802.13;;;8.10;63.47
46756;BME280;32506;52.826;-1.192;2023-03-20T04:20:44;100795.19;;;8.09;63.57
46756;BME280;32506;52.826;-1.192;2023-03-20T04:23:10;100789.03;;;8.08;63.53
46756;BME280;32506;52.826;-1.192;2023-03-20T04:25:36;100791.69;;;8.08;63.64
46756;BME280;32506;52.826;-1.192;2023-03-20T04:28:02;100798.06;;;8.07;63.72
46756;BME280;32506;52.826;-1.192;2023-03-20T04:30:27;100783.91;;;8.06;63.97
46756;BME280;32506;52.826;-1.192;2023-03-20T04:32:53;100791.06;;;8.06;64.12
46756;BME280;32506;52.826;-1.192;2023-03-20T04:35:18;100787.41;;;8.07;64.27
46756;BME280;32506;52.826;-1.192;2023-03-20T04:37:44;100789.41;;;8.05;64.07
46756;BME280;32506;52.826;-1.192;2023-03-20T04:40:10;100791.25;;;8.04;64.22
46756;BME280;32506;52.826;-1.192;2023-03-20T04:42:35;100785.09;;;8.04;64.41
46756;BME280;32506;52.826;-1.192;2023-03-20T04:45:01;100780.63;;;8.04;64.66
46756;BME280;32506;52.826;-1.192;2023-03-20T04:47:26;100792.28;;;8.03;64.89
46756;BME280;32506;52.826;-1.192;2023-03-20T04:49:51;100789.59;;;8.03;64.88
46756;BME280;32506;52.826;-1.192;2023-03-20T04:52:17;100783.44;;;8.03;64.89
46756;BME280;32506;52.826;-1.192;2023-03-20T04:54:42;100786.09;;;8.03;64.67
46756;BME280;32506;52.826;-1.192;2023-03-20T04:57:08;100787.97;;;8.02;64.85
46756;BME280;32506;52.826;-1.192;2023-03-20T04:59:33;100779.97;;;8.02;65.22
46756;BME280;32506;52.826;-1.192;2023-03-20T05:01:59;100785.50;;;8.01;65.09
46756;BME280;32506;52.826;-1.192;2023-03-20T05:04:24;100782.81;;;8.01;64.95
46756;BME280;32506;52.826;-1.192;2023-03-20T05:06:50;100781.81;;;8.02;64.65
46756;BME280;32506;52.826;-1.192;2023-03-20T05:09:16;100781.19;;;8.00;64.73
46756;BME280;32506;52.826;-1.192;2023-03-20T05:11:42;100787.34;;;8.00;65.46
46756;BME280;32506;52.826;-1.192;2023-03-20T05:14:07;100786.50;;;8.00;65.41
46756;BME280;32506;52.826;-1.192;2023-03-20T05:16:33;100781.38;;;7.98;64.93
46756;BME280;32506;52.826;-1.192;2023-03-20T05:18:58;100796.34;;;7.99;65.30
46756;BME280;32506;52.826;-1.192;2023-03-20T05:21:24;100789.34;;;7.98;65.53
46756;BME280;32506;52.826;-1.192;2023-03-20T05:23:50;100791.19;;;7.98;65.32
46756;BME280;32506;52.826;-1.192;2023-03-20T05:26:15;100785.88;;;7.98;65.17
46756;BME280;32506;52.826;-1.192;2023-03-20T05:28:41;100786.88;;;7.97;65.41
46756;BME280;32506;52.826;-1.192;2023-03-20T05:31:07;100782.56;;;7.96;65.80
46756;BME280;32506;52.826;-1.192;2023-03-20T05:33:32;100785.22;;;7.96;65.62
46756;BME280;32506;52.826;-1.192;2023-03-20T05:35:58;100786.25;;;7.95;65.76
46756;BME280;32506;52.826;-1.192;2023-03-20T05:38:23;100773.97;;;7.94;65.36
46756;BME280;32506;52.826;-1.192;2023-03-20T05:40:55;100774.97;;;7.93;65.30
46756;BME280;32506;52.826;-1.192;2023-03-20T05:43:20;100765.97;;;7.94;65.76
46756;BME280;32506;52.826;-1.192;2023-03-20T05:45:46;100770.47;;;7.93;65.80
46756;BME280;32506;52.826;-1.192;2023-03-20T05:48:11;100764.34;;;7.93;65.46
46756;BME280;32506;52.826;-1.192;2023-03-20T05:50:37;100764.34;;;7.93;65.46
46756;BME280;32506;52.826;-1.192;2023-03-20T05:53:02;100762.47;;;7.93;65.61
46756;BME280;32506;52.826;-1.192;2023-03-20T05:55:28;100768.81;;;7.92;65.98
46756;BME280;32506;52.826;-1.192;2023-03-20T05:57:53;100768.81;;;7.92;65.66
46756;BME280;32506;52.826;-1.192;2023-03-20T06:00:19;100770.66;;;7.92;65.87
46756;BME280;32506;52.826;-1.192;2023-03-20T06:02:44;100768.00;;;7.92;65.59
46756;BME280;32506;52.826;-1.192;2023-03-20T06:05:10;100764.53;;;7.91;66.03
46756;BME280;32506;52.826;-1.192;2023-03-20T06:07:35;100772.50;;;7.91;66.02
46756;BME280;32506;52.826;-1.192;2023-03-20T06:10:01;100772.50;;;7.91;65.98
46756;BME280;32506;52.826;-1.192;2023-03-20T06:12:26;100767.19;;;7.91;65.76
46756;BME280;32506;52.826;-1.192;2023-03-20T06:14:52;100772.50;;;7.91;66.29
46756;BME280;32506;52.826;-1.192;2023-03-20T06:17:17;100773.31;;;7.92;66.17
46756;BME280;32506;52.826;-1.192;2023-03-20T06:19:42;100767.19;;;7.91;65.76
46756;BME280;32506;52.826;-1.192;2023-03-20T06:22:08;100765.34;;;7.92;66.08
46756;BME280;32506;52.826;-1.192;2023-03-20T06:24:33;100766.16;;;7.92;66.01
46756;BME280;32506;52.826;-1.192;2023-03-20T06:27:00;100767.00;;;7.93;66.13
46756;BME280;32506;52.826;-1.192;2023-03-20T06:29:25;100772.13;;;7.94;66.19
46756;BME280;32506;52.826;-1.192;2023-03-20T06:31:51;100766.78;;;7.94;66.26
46756;BME280;32506;52.826;-1.192;2023-03-20T06:34:16;100780.91;;;7.95;65.94
46756;BME280;32506;52.826;-1.192;2023-03-20T06:36:42;100770.28;;;7.95;65.72
46756;BME280;32506;52.826;-1.192;2023-03-20T06:39:07;100773.78;;;7.95;65.79
46756;BME280;32506;52.826;-1.192;2023-03-20T06:41:33;100771.13;;;7.95;65.54
46756;BME280;32506;52.826;-1.192;2023-03-20T06:43:58;100769.25;;;7.96;65.46
46756;BME280;32506;52.826;-1.192;2023-03-20T06:46:24;100769.06;;;7.97;65.04
46756;BME280;32506;52.826;-1.192;2023-03-20T06:48:50;100774.38;;;7.97;64.99
46756;BME280;32506;52.826;-1.192;2023-03-20T06:51:16;100770.72;;;7.98;64.88
46756;BME280;32506;52.826;-1.192;2023-03-20T06:53:42;100768.88;;;7.99;64.69
46756;BME280;32506;52.826;-1.192;2023-03-20T06:56:11;100766.03;;;8.00;64.68
46756;BME280;32506;52.826;-1.192;2023-03-20T06:58:37;100762.34;;;8.01;64.92
46756;BME280;32506;52.826;-1.192;2023-03-20T07:01:13;100757.88;;;8.02;65.20
46756;BME280;32506;52.826;-1.192;2023-03-20T07:03:41;100774.66;;;8.02;65.37
46756;BME280;32506;52.826;-1.192;2023-03-20T07:06:07;100769.13;;;8.04;65.15
46756;BME280;32506;52.826;-1.192;2023-03-20T07:08:32;100775.28;;;8.04;64.99
46756;BME280;32506;52.826;-1.192;2023-03-20T07:10:58;100775.91;;;8.06;64.80
46756;BME280;32506;52.826;-1.192;2023-03-20T07:13:24;100774.72;;;8.09;64.83
46756;BME280;32506;52.826;-1.192;2023-03-20T07:15:50;100771.03;;;8.10;64.93
46756;BME280;32506;52.826;-1.192;2023-03-20T07:18:16;100777.16;;;8.11;65.26
46756;BME280;32506;52.826;-1.192;2023-03-20T07:20:43;100774.31;;;8.12;65.26
46756;BME280;32506;52.826;-1.192;2023-03-20T07:23:09;100787.47;;;8.14;64.93
46756;BME280;32506;52.826;-1.192;2023-03-20T07:25:35;100780.91;;;8.16;65.34
46756;BME280;32506;52.826;-1.192;2023-03-20T07:28:00;100776.22;;;8.18;65.35
46756;BME280;32506;52.826;-1.192;2023-03-20T07:30:26;100784.81;;;8.20;65.44
46756;BME280;32506;52.826;-1.192;2023-03-20T07:32:51;100778.50;;;8.21;65.63
46756;BME280;32506;52.826;-1.192;2023-03-20T07:35:16;100788.78;;;8.25;65.27
46756;BME280;32506;52.826;-1.192;2023-03-20T07:37:42;100789.59;;;8.25;65.35
46756;BME280;32506;52.826;-1.192;2023-03-20T07:40:08;100784.88;;;8.27;65.52
46756;BME280;32506;52.826;-1.192;2023-03-20T07:42:33;100795.97;;;8.31;65.68
46756;BME280;32506;52.826;-1.192;2023-03-20T07:44:59;100782.66;;;8.31;65.68
46756;BME280;32506;52.826;-1.192;2023-03-20T07:47:25;100785.97;;;8.33;65.71
46756;BME280;32506;52.826;-1.192;2023-03-20T07:49:50;100783.94;;;8.35;65.81
46756;BME280;32506;52.826;-1.192;2023-03-20T07:52:16;100780.25;;;8.36;65.48
46756;BME280;32506;52.826;-1.192;2023-03-20T07:54:41;100784.38;;;8.38;65.80
46756;BME280;32506;52.826;-1.192;2023-03-20T07:57:07;100790.31;;;8.40;66.08
46756;BME280;32506;52.826;-1.192;2023-03-20T07:59:32;100785.63;;;8.43;65.85
46756;BME280;32506;52.826;-1.192;2023-03-20T08:01:58;100784.44;;;8.45;65.95
46756;BME280;32506;52.826;-1.192;2023-03-20T08:04:23;100791.22;;;8.48;65.98
46756;BME280;32506;52.826;-1.192;2023-03-20T08:06:49;100788.38;;;8.49;65.85
46756;BME280;32506;52.826;-1.192;2023-03-20T08:09:15;100788.16;;;8.51;66.32
46756;BME280;32506;52.826;-1.192;2023-03-20T08:11:41;100785.31;;;8.52;66.00
46756;BME280;32506;52.826;-1.192;2023-03-20T08:14:06;100780.44;;;8.56;66.24
46756;BME280;32506;52.826;-1.192;2023-03-20T08:16:32;100791.53;;;8.60;66.30
46756;BME280;32506;52.826;-1.192;2023-03-20T08:18:58;100793.16;;;8.61;66.41
46756;BME280;32506;52.826;-1.192;2023-03-20T08:21:29;100797.28;;;8.63;66.17
46756;BME280;32506;52.826;-1.192;2023-03-20T08:23:55;100796.91;;;8.66;66.12
46756;BME280;32506;52.826;-1.192;2023-03-20T08:26:21;100801.03;;;8.69;66.20
46756;BME280;32506;52.826;-1.192;2023-03-20T08:28:47;100800.81;;;8.70;66.31
46756;BME280;32506;52.826;-1.192;2023-03-20T08:31:13;100795.09;;;8.73;66.64
46756;BME280;32506;52.826;-1.192;2023-03-20T08:33:38;100800.88;;;8.77;66.71
46756;BME280;32506;52.826;-1.192;2023-03-20T08:36:04;100803.34;;;8.79;66.59
46756;BME280;32506;52.826;-1.192;2023-03-20T08:38:30;100802.13;;;8.81;66.77
46756;BME280;32506;52.826;-1.192;2023-03-20T08:40:55;100813.19;;;8.85;66.72
46756;BME280;32506;52.826;-1.192;2023-03-20T08:43:21;100813.03;;;8.86;67.26
46756;BME280;32506;52.826;-1.192;2023-03-20T08:45:46;100813.44;;;8.90;66.92
46756;BME280;32506;52.826;-1.192;2023-03-20T08:48:12;100811.22;;;8.94;66.90
46756;BME280;32506;52.826;-1.192;2023-03-20T08:50:37;100806.53;;;8.96;66.74
46756;BME280;32506;52.826;-1.192;2023-03-20T08:53:04;100817.59;;;8.99;67.18
46756;BME280;32506;52.826;-1.192;2023-03-20T08:55:30;100819.88;;;9.02;67.02
46756;BME280;32506;52.826;-1.192;2023-03-20T08:57:56;100824.81;;;9.05;67.09
46756;BME280;32506;52.826;-1.192;2023-03-20T09:00:22;100822.59;;;9.09;67.26
46756;BME280;32506;52.826;-1.192;2023-03-20T09:02:48;100824.00;;;9.12;67.45
46756;BME280;32506;52.826;-1.192;2023-03-20T09:05:15;100816.44;;;9.15;67.18
46756;BME280;32506;52.826;-1.192;2023-03-20T09:07:41;100819.56;;;9.19;67.36
46756;BME280;32506;52.826;-1.192;2023-03-20T09:10:09;100819.34;;;9.20;67.30
46756;BME280;32506;52.826;-1.192;2023-03-20T09:12:34;100816.06;;;9.25;67.59
46756;BME280;32506;52.826;-1.192;2023-03-20T09:15:01;100813.84;;;9.29;67.64
46756;BME280;32506;52.826;-1.192;2023-03-20T09:17:26;100818.78;;;9.32;67.43
46756;BME280;32506;52.826;-1.192;2023-03-20T09:19:52;100820.22;;;9.34;67.81
46756;BME280;32506;52.826;-1.192;2023-03-20T09:22:17;100822.31;;;9.39;67.68
46756;BME280;32506;52.826;-1.192;2023-03-20T09:24:43;100814.72;;;9.43;67.91
46756;BME280;32506;52.826;-1.192;2023-03-20T09:27:09;100818.03;;;9.45;67.91
46756;BME280;32506;52.826;-1.192;2023-03-20T09:29:34;100814.56;;;9.51;67.99
46756;BME280;32506;52.826;-1.192;2023-03-20T09:32:00;100807.16;;;9.53;68.00
46756;BME280;32506;52.826;-1.192;2023-03-20T09:34:26;100808.41;;;9.57;68.44
46756;BME280;32506;52.826;-1.192;2023-03-20T09:36:51;100815.00;;;9.61;68.40
46756;BME280;32506;52.826;-1.192;2023-03-20T09:39:17;100812.75;;;9.65;68.05
46756;BME280;32506;52.826;-1.192;2023-03-20T09:41:47;100814.81;;;9.69;68.24
46756;BME280;32506;52.826;-1.192;2023-03-20T09:53:04;100833.94;;;9.86;68.45
46756;BME280;32506;52.826;-1.192;2023-03-20T09:55:39;100821.03;;;9.90;68.40
46756;BME280;32506;52.826;-1.192;2023-03-20T09:58:29;100827.59;;;9.94;68.52
46756;BME280;32506;52.826;-1.192;2023-03-20T10:00:59;100821.84;;;9.97;68.33
46756;BME280;32506;52.826;-1.192;2023-03-20T10:03:40;100826.59;;;10.02;68.68
46756;BME280;32506;52.826;-1.192;2023-03-20T10:06:12;100829.47;;;10.07;68.54
46756;BME280;32506;52.826;-1.192;2023-03-20T10:08:38;100832.56;;;10.11;68.82
46756;BME280;32506;52.826;-1.192;2023-03-20T10:19:43;100831.34;;;10.33;69.37
46756;BME280;32506;52.826;-1.192;2023-03-20T10:22:29;100834.88;;;10.40;69.85
46756;BME280;32506;52.826;-1.192;2023-03-20T10:27:58;100841.88;;;10.55;70.22
46756;BME280;32506;52.826;-1.192;2023-03-20T10:36:27;100841.25;;;10.80;71.26
46756;BME280;32506;52.826;-1.192;2023-03-20T10:39:20;100831.94;;;10.89;71.79
46756;BME280;32506;52.826;-1.192;2023-03-20T10:41:59;100827.63;;;11.01;72.35
46756;BME280;32506;52.826;-1.192;2023-03-20T10:44:32;100820.59;;;11.14;72.84
46756;BME280;32506;52.826;-1.192;2023-03-20T10:47:00;100826.50;;;11.29;73.95
46756;BME280;32506;52.826;-1.192;2023-03-20T10:49:29;100819.03;;;11.45;74.86
46756;BME280;32506;52.826;-1.192;2023-03-20T10:52:01;100814.84;;;11.62;75.47
46756;BME280;32506;52.826;-1.192;2023-03-20T10:54:35;100815.53;;;11.83;76.12
46756;BME280;32506;52.826;-1.192;2023-03-20T10:57:04;100820.56;;;12.04;76.30
46756;BME280;32506;52.826;-1.192;2023-03-20T10:59:38;100811.34;;;12.25;76.57
46756;BME280;32506;52.826;-1.192;2023-03-20T11:02:13;100822.13;;;12.44;76.30
46756;BME280;32506;52.826;-1.192;2023-03-20T11:04:39;100812.50;;;12.62;76.17
46756;BME280;32506;52.826;-1.192;2023-03-20T11:09:36;100820.44;;;12.93;75.95
46756;BME280;32506;52.826;-1.192;2023-03-20T11:12:03;100814.94;;;13.07;75.34
46756;BME280;32506;52.826;-1.192;2023-03-20T11:14:35;100810.22;;;13.21;75.51
46756;BME280;32506;52.826;-1.192;2023-03-20T11:17:02;100811.94;;;13.34;74.90
46756;BME280;32506;52.826;-1.192;2023-03-20T11:19:33;100810.38;;;13.45;74.82
46756;BME280;32506;52.826;-1.192;2023-03-20T11:22:06;100802.41;;;13.56;74.34
46756;BME280;32506;52.826;-1.192;2023-03-20T11:24:43;100801.84;;;13.66;74.26
46756;BME280;32506;52.826;-1.192;2023-03-20T11:27:23;100795.34;;;13.74;73.82
46756;BME280;32506;52.826;-1.192;2023-03-20T11:29:50;100803.88;;;13.83;73.27
46756;BME280;32506;52.826;-1.192;2023-03-20T11:32:39;100804.38;;;13.91;72.93
46756;BME280;32506;52.826;-1.192;2023-03-20T11:35:18;100803.69;;;13.96;72.83
46756;BME280;32506;52.826;-1.192;2023-03-20T11:37:47;100802.16;;;14.00;72.58
46756;BME280;32506;52.826;-1.192;2023-03-20T11:40:22;100803.94;;;14.06;72.28
46756;BME280;32506;52.826;-1.192;2023-03-20T11:42:53;100799.16;;;14.08;72.01
46756;BME280;32506;52.826;-1.192;2023-03-20T11:45:19;100801.16;;;14.13;71.52
46756;BME280;32506;52.826;-1.192;2023-03-20T11:47:50;100801.53;;;14.17;71.10
46756;BME280;32506;52.826;-1.192;2023-03-20T11:50:37;100800.22;;;14.19;71.44
46756;BME280;32506;52.826;-1.192;2023-03-20T11:53:30;100803.88;;;14.25;71.04
46756;BME280;32506;52.826;-1.192;2023-03-20T11:56:27;100802.59;;;14.27;70.78
46756;BME280;32506;52.826;-1.192;2023-03-20T11:59:12;100793.44;;;14.29;70.54
46756;BME280;32506;52.826;-1.192;2023-03-20T12:01:43;100800.47;;;14.30;70.30
46756;BME280;32506;52.826;-1.192;2023-03-20T12:04:31;100793.56;;;14.34;70.21
46756;BME280;32506;52.826;-1.192;2023-03-20T12:07:10;100789.84;;;14.35;69.89
46756;BME280;32506;52.826;-1.192;2023-03-20T12:09:45;100796.63;;;14.37;70.26
46756;BME280;32506;52.826;-1.192;2023-03-20T12:15:26;100790.28;;;14.43;70.08
46756;BME280;32506;52.826;-1.192;2023-03-20T12:17:55;100786.56;;;14.44;69.89
46756;BME280;32506;52.826;-1.192;2023-03-20T12:23:05;100794.28;;;14.53;69.79
46756;BME280;32506;52.826;-1.192;2023-03-20T12:26:00;100788.78;;;14.59;69.88
46756;BME280;32506;52.826;-1.192;2023-03-20T12:28:45;100786.25;;;14.65;70.32
46756;BME280;32506;52.826;-1.192;2023-03-20T12:33:57;100780.38;;;14.80;70.47
46756;BME280;32506;52.826;-1.192;2023-03-20T12:36:31;100776.28;;;14.89;70.59
46756;BME280;32506;52.826;-1.192;2023-03-20T12:39:00;100774.03;;;14.98;70.71
46756;BME280;32506;52.826;-1.192;2023-03-20T12:41:39;100772.72;;;15.12;71.32
46756;BME280;32506;52.826;-1.192;2023-03-20T12:52:57;100768.56;;;15.62;70.74
46756;BME280;32506;52.826;-1.192;2023-03-20T12:58:47;100748.09;;;15.78;70.31
46756;BME280;32506;52.826;-1.192;2023-03-20T13:01:36;100752.28;;;15.86;70.35
46756;BME280;32506;52.826;-1.192;2023-03-20T13:04:13;100750.56;;;15.97;70.23
46756;BME280;32506;52.826;-1.192;2023-03-20T13:06:52;100747.97;;;16.02;70.37
46756;BME280;32506;52.826;-1.192;2023-03-20T13:09:42;100743.53;;;16.13;70.26
46756;BME280;32506;52.826;-1.192;2023-03-20T13:13:13;100743.22;;;16.26;70.30
46756;BME280;32506;52.826;-1.192;2023-03-20T13:18:16;100737.69;;;16.55;71.00
46756;BME280;32506;52.826;-1.192;2023-03-20T13:20:49;100739.19;;;16.68;70.99
46756;BME280;32506;52.826;-1.192;2023-03-20T13:23:32;100739.09;;;16.80;70.54
46756;BME280;32506;52.826;-1.192;2023-03-20T13:29:28;100736.69;;;17.00;70.17
46756;BME280;32506;52.826;-1.192;2023-03-20T13:37:43;100730.00;;;17.30;70.02
46756;BME280;32506;52.826;-1.192;2023-03-20T13:40:15;100727.94;;;17.42;70.06
46756;BME280;32506;52.826;-1.192;2023-03-20T13:45:37;100724.63;;;17.63;69.64
46756;BME280;32506;52.826;-1.192;2023-03-20T13:51:00;100724.53;;;17.80;68.91
46756;BME280;32506;52.826;-1.192;2023-03-20T14:01:28;100708.75;;;17.99;67.71
46756;BME280;32506;52.826;-1.192;2023-03-20T14:03:55;100715.81;;;18.05;67.88
46756;BME280;32506;52.826;-1.192;2023-03-20T14:08:56;100711.84;;;18.18;67.59
46756;BME280;32506;52.826;-1.192;2023-03-20T14:14:14;100699.22;;;18.34;67.41
46756;BME280;32506;52.826;-1.192;2023-03-20T14:16:41;100703.03;;;18.38;67.44
46756;BME280;32506;52.826;-1.192;2023-03-20T14:19:16;100698.19;;;18.45;67.24
46756;BME280;32506;52.826;-1.192;2023-03-20T14:21:46;100697.69;;;18.48;67.35
46756;BME280;32506;52.826;-1.192;2023-03-20T14:24:14;100701.50;;;18.52;67.29
46756;BME280;32506;52.826;-1.192;2023-03-20T14:26:42;100701.53;;;18.57;66.75
46756;BME280;32506;52.826;-1.192;2023-03-20T14:31:37;100708.88;;;18.67;66.65
46756;BME280;32506;52.826;-1.192;2023-03-20T14:37:03;100710.28;;;18.80;66.26
46756;BME280;32506;52.826;-1.192;2023-03-20T14:39:49;100709.19;;;18.81;65.92
46756;BME280;32506;52.826;-1.192;2023-03-20T14:45:25;100703.00;;;18.86;65.54
46756;BME280;32506;52.826;-1.192;2023-03-20T14:53:20;100700.03;;;18.87;65.23
46756;BME280;32506;52.826;-1.192;2023-03-20T15:01:25;100680.81;;;18.89;65.19
46756;BME280;32506;52.826;-1.192;2023-03-20T15:04:05;100686.47;;;18.87;64.52
46756;BME280;32506;52.826;-1.192;2023-03-20T15:06:33;100688.63;;;18.85;63.93
46756;BME280;32506;52.826;-1.192;2023-03-20T15:09:04;100693.25;;;18.85;63.77
46756;BME280;32506;52.826;-1.192;2023-03-20T15:11:32;100689.16;;;18.82;63.09
46756;BME280;32506;52.826;-1.192;2023-03-20T15:13:59;100685.09;;;18.79;63.13
46756;BME280;32506;52.826;-1.192;2023-03-20T15:16:36;100695.13;;;18.79;62.55
46756;BME280;32506;52.826;-1.192;2023-03-20T15:19:12;100697.81;;;18.74;62.74
46756;BME280;32506;52.826;-1.192;2023-03-20T15:21:43;100694.81;;;18.70;62.43
46756;BME280;32506;52.826;-1.192;2023-03-20T15:24:20;100702.38;;;18.68;62.06
46756;BME280;32506;52.826;-1.192;2023-03-20T15:26:46;100689.63;;;18.64;62.11